South Padre Island, TX

3:01 AM CST on November 22, 2014 (GMT -0600)
Port Isabel | Change Station
CLOSE
Current Station
Airport
Location: Port Isabel,
Elevation: 16 ft
Nearby Weather Stations

Elev 16 ft 26.16 °N, 97.34 °W | Updated 8 minutes ago

Rain
Rain
71 °F
Feels Like 71 °F
N
13
Wind Variable Wind from SE

Today
High -- | Low -- °F
--% Chance of Precip.
Yesterday
High -- | Low -- °F
Precip. -- in
6:52 AM 5:37 PM
Waning Crescent, 0% visible
Pressure 30.00 in
Visibility 7.0 miles
Clouds Mostly Cloudy 4200 ft
Mostly Cloudy 5500 ft
Dew Point 68 °F
Humidity 90%
Rainfall 0.00 in
Snow Depth Not available.
UV 0 out of 12
Pollen 5.10 out of 12
Air Quality Not available.
Flu Activity Not available.
METAR KPIL 220853Z AUTO 14011KT 7SM BKN042 BKN055 22/20 A3000 RMK AO2 RAE16 SLP157 P0000 60000 T02170200 55011

More Conditions Fewer Conditions

Pressure 30.00 in
Visibility 7.0 miles
Clouds Mostly Cloudy 4200 ft
Mostly Cloudy 5500 ft
Dew Point 68 °F
Humidity 90%
Rainfall 0.00 in
Snow Depth Not available.
UV 0 out of 12
Pollen 5.10 out of 12
Air Quality Not available.
Flu Activity Not available.
METAR KPIL 220853Z AUTO 14011KT 7SM BKN042 BKN055 22/20 A3000 RMK AO2 RAE16 SLP157 P0000 60000 T02170200 55011

More Conditions Fewer Conditions

10-Day Weather Forecast

Almanac

Astronomy

Nov. 22, 2014 Rise Set
Actual Time
Civil Twilight
Nautical Twilight
Astronomical Twilight
Moon
Length of Visible Light
Length of Day
Tomorrow will be .
, % of the Moon is Illuminated

Today's Extremes

State Highs State Lows

Community

WunderPhotos

Upload Photos

1,772,794 photos uploaded!

WunderBlogs® & News

Nearby

Air Quality

  Air Quality AQ Index Pollutant
Not available.

Snow Depth

Station Depth Elevation

Earthquake Activity

City Distance Mag. Time & Date
Minimum magnitude displayed is 2.5.

Coastal Water Temperatures

Place Temperature

Nearby Weather Stations